CheckWX is a tool to help pilots better visualize weather data.  It is not intended as a substitute for an official pre-flight weather briefing.

06:45:08 UTC

EGYD METAR
RAF Cranwell Airport
Cranwell, United Kingdom
Current

55 mins ago

EGYD 220550Z AUTO 08002KT 5000 // NCD 05/04 Q1010
Observed
Apr-22 @ 05:50 UTC
Wind
  • 080° at 2 KTS
Visibility
5,005 meters
Flight Rules
MVFR
Cloud Levels
  • Clear skies
Temperature
C / 41°F
Dewpoint
C / 39°F
Humidity
93%
Altimeter
29.82" Hg
Pressure
1009.92 hPa
Previous

2 hours ago

EGYD 220450Z AUTO 09005KT 5000 // NCD 03/02 Q1010
Observed
Apr-22 @ 04:50 UTC
Wind
  • 090° at 5 KTS
Visibility
5,005 meters
Flight Rules
MVFR
Cloud Levels
  • Clear skies
Temperature
C / 37°F
Dewpoint
C / 36°F
Humidity
93%
Altimeter
29.82" Hg
Pressure
1009.92 hPa
Previous

3 hours ago

EGYD 220350Z AUTO 11003KT 8000 // NCD 05/02 Q1011
Observed
Apr-22 @ 03:50 UTC
Wind
  • 110° at 3 KTS
Visibility
7,998 meters
Flight Rules
MVFR
Cloud Levels
  • Clear skies
Temperature
C / 41°F
Dewpoint
C / 36°F
Humidity
81%
Altimeter
29.85" Hg
Pressure
1010.92 hPa